sensor_id;sensor_type;location;lat;lon;timestamp;temperature;humidity
43679;DHT22;29279;50.858;4.392;2023-05-09T00:01:52;15.60;99.90
43679;DHT22;29279;50.858;4.392;2023-05-09T00:04:18;15.60;99.90
43679;DHT22;29279;50.858;4.392;2023-05-09T00:06:44;15.60;99.90
43679;DHT22;29279;50.858;4.392;2023-05-09T00:09:10;15.50;99.90
43679;DHT22;29279;50.858;4.392;2023-05-09T00:11:37;15.40;99.90
43679;DHT22;29279;50.858;4.392;2023-05-09T00:14:03;15.50;99.90
43679;DHT22;29279;50.858;4.392;2023-05-09T00:16:30;15.60;99.90
43679;DHT22;29279;50.858;4.392;2023-05-09T00:18:58;15.60;99.90
43679;DHT22;29279;50.858;4.392;2023-05-09T00:21:23;15.70;99.90
43679;DHT22;29279;50.858;4.392;2023-05-09T00:23:49;15.70;99.90
43679;DHT22;29279;50.858;4.392;2023-05-09T00:26:15;15.50;99.90
43679;DHT22;29279;50.858;4.392;2023-05-09T00:28:41;15.50;99.90
43679;DHT22;29279;50.858;4.392;2023-05-09T00:31:06;15.50;99.90
43679;DHT22;29279;50.858;4.392;2023-05-09T00:33:32;15.60;99.90
43679;DHT22;29279;50.858;4.392;2023-05-09T00:35:57;15.60;99.90
43679;DHT22;29279;50.858;4.392;2023-05-09T00:38:23;15.60;99.90
43679;DHT22;29279;50.858;4.392;2023-05-09T00:40:49;15.60;99.90
43679;DHT22;29279;50.858;4.392;2023-05-09T00:43:15;15.70;99.90
43679;DHT22;29279;50.858;4.392;2023-05-09T00:45:41;15.80;99.90
43679;DHT22;29279;50.858;4.392;2023-05-09T00:48:07;15.80;99.90
43679;DHT22;29279;50.858;4.392;2023-05-09T00:50:33;15.80;99.90
43679;DHT22;29279;50.858;4.392;2023-05-09T00:52:59;15.70;99.90
43679;DHT22;29279;50.858;4.392;2023-05-09T00:55:26;15.80;99.90
43679;DHT22;29279;50.858;4.392;2023-05-09T00:57:51;16.00;99.90
43679;DHT22;29279;50.858;4.392;2023-05-09T01:00:17;15.90;99.90
43679;DHT22;29279;50.858;4.392;2023-05-09T01:02:46;16.00;99.90
43679;DHT22;29279;50.858;4.392;2023-05-09T01:05:13;16.10;99.90
43679;DHT22;29279;50.858;4.392;2023-05-09T01:07:53;16.00;99.90
43679;DHT22;29279;50.858;4.392;2023-05-09T01:10:49;15.90;99.90
43679;DHT22;29279;50.858;4.392;2023-05-09T01:16:28;15.90;99.90
43679;DHT22;29279;50.858;4.392;2023-05-09T01:21:43;15.70;99.90
43679;DHT22;29279;50.858;4.392;2023-05-09T01:29:59;15.80;99.90
43679;DHT22;29279;50.858;4.392;2023-05-09T01:32:28;15.80;99.90
43679;DHT22;29279;50.858;4.392;2023-05-09T01:34:56;15.70;99.90
43679;DHT22;29279;50.858;4.392;2023-05-09T01:37:30;15.60;99.90
43679;DHT22;29279;50.858;4.392;2023-05-09T01:39:59;15.70;99.90
43679;DHT22;29279;50.858;4.392;2023-05-09T01:42:28;15.80;99.90
43679;DHT22;29279;50.858;4.392;2023-05-09T01:44:56;15.80;99.90
43679;DHT22;29279;50.858;4.392;2023-05-09T01:47:23;15.90;99.90
43679;DHT22;29279;50.858;4.392;2023-05-09T01:49:50;15.70;99.90
43679;DHT22;29279;50.858;4.392;2023-05-09T01:52:18;15.70;99.90
43679;DHT22;29279;50.858;4.392;2023-05-09T01:54:45;15.70;99.90
43679;DHT22;29279;50.858;4.392;2023-05-09T01:57:11;15.60;99.90
43679;DHT22;29279;50.858;4.392;2023-05-09T01:59:41;15.70;99.90
43679;DHT22;29279;50.858;4.392;2023-05-09T02:02:07;15.70;99.90
43679;DHT22;29279;50.858;4.392;2023-05-09T02:04:34;15.70;99.90
43679;DHT22;29279;50.858;4.392;2023-05-09T02:07:01;15.70;99.90
43679;DHT22;29279;50.858;4.392;2023-05-09T02:09:28;15.60;99.90
43679;DHT22;29279;50.858;4.392;2023-05-09T02:11:54;15.60;99.90
43679;DHT22;29279;50.858;4.392;2023-05-09T02:14:19;15.60;99.90
43679;DHT22;29279;50.858;4.392;2023-05-09T02:16:46;15.60;99.90
43679;DHT22;29279;50.858;4.392;2023-05-09T02:19:12;15.70;99.90
43679;DHT22;29279;50.858;4.392;2023-05-09T02:21:38;15.80;99.90
43679;DHT22;29279;50.858;4.392;2023-05-09T02:24:04;15.90;99.90
43679;DHT22;29279;50.858;4.392;2023-05-09T02:26:30;15.90;99.90
43679;DHT22;29279;50.858;4.392;2023-05-09T02:28:56;15.70;99.90
43679;DHT22;29279;50.858;4.392;2023-05-09T02:31:24;15.60;99.90
43679;DHT22;29279;50.858;4.392;2023-05-09T02:33:52;15.70;99.90
43679;DHT22;29279;50.858;4.392;2023-05-09T02:36:20;15.60;99.90
43679;DHT22;29279;50.858;4.392;2023-05-09T02:38:46;15.60;99.90
43679;DHT22;29279;50.858;4.392;2023-05-09T02:41:13;15.60;99.90
43679;DHT22;29279;50.858;4.392;2023-05-09T02:43:40;15.70;99.90
43679;DHT22;29279;50.858;4.392;2023-05-09T02:46:07;15.70;99.90
43679;DHT22;29279;50.858;4.392;2023-05-09T02:48:33;15.70;99.90
43679;DHT22;29279;50.858;4.392;2023-05-09T02:50:58;15.70;99.90
43679;DHT22;29279;50.858;4.392;2023-05-09T02:53:24;15.60;99.90
43679;DHT22;29279;50.858;4.392;2023-05-09T02:55:50;15.70;99.90
43679;DHT22;29279;50.858;4.392;2023-05-09T02:58:15;15.70;99.90
43679;DHT22;29279;50.858;4.392;2023-05-09T03:00:41;15.70;99.90
43679;DHT22;29279;50.858;4.392;2023-05-09T03:03:07;15.70;99.90
43679;DHT22;29279;50.858;4.392;2023-05-09T03:05:33;15.60;99.90
43679;DHT22;29279;50.858;4.392;2023-05-09T03:07:59;15.70;99.90
43679;DHT22;29279;50.858;4.392;2023-05-09T03:10:25;15.80;99.90
43679;DHT22;29279;50.858;4.392;2023-05-09T03:12:50;15.70;99.90
43679;DHT22;29279;50.858;4.392;2023-05-09T03:15:16;15.80;99.90
43679;DHT22;29279;50.858;4.392;2023-05-09T03:17:42;15.80;99.90
43679;DHT22;29279;50.858;4.392;2023-05-09T03:20:08;15.70;99.90
43679;DHT22;29279;50.858;4.392;2023-05-09T03:22:38;15.60;99.90
43679;DHT22;29279;50.858;4.392;2023-05-09T03:25:04;15.60;99.90
43679;DHT22;29279;50.858;4.392;2023-05-09T03:27:31;15.60;99.90
43679;DHT22;29279;50.858;4.392;2023-05-09T03:29:56;15.80;99.90
43679;DHT22;29279;50.858;4.392;2023-05-09T03:32:22;15.60;99.90
43679;DHT22;29279;50.858;4.392;2023-05-09T03:34:48;15.60;99.90
43679;DHT22;29279;50.858;4.392;2023-05-09T03:37:13;15.60;99.90
43679;DHT22;29279;50.858;4.392;2023-05-09T03:39:39;15.70;99.90
43679;DHT22;29279;50.858;4.392;2023-05-09T03:42:05;15.70;99.90
43679;DHT22;29279;50.858;4.392;2023-05-09T03:44:30;15.80;99.90
43679;DHT22;29279;50.858;4.392;2023-05-09T03:46:56;15.80;99.90
43679;DHT22;29279;50.858;4.392;2023-05-09T03:49:22;15.70;99.90
43679;DHT22;29279;50.858;4.392;2023-05-09T03:51:47;15.80;99.90
43679;DHT22;29279;50.858;4.392;2023-05-09T03:54:13;15.80;99.90
43679;DHT22;29279;50.858;4.392;2023-05-09T03:56:39;15.90;99.90
43679;DHT22;29279;50.858;4.392;2023-05-09T03:59:04;15.70;99.90
43679;DHT22;29279;50.858;4.392;2023-05-09T04:01:30;15.70;99.90
43679;DHT22;29279;50.858;4.392;2023-05-09T04:03:56;15.80;99.90
43679;DHT22;29279;50.858;4.392;2023-05-09T04:06:22;15.80;99.90
43679;DHT22;29279;50.858;4.392;2023-05-09T04:08:48;15.80;99.90
43679;DHT22;29279;50.858;4.392;2023-05-09T04:11:13;15.70;99.90
43679;DHT22;29279;50.858;4.392;2023-05-09T04:13:39;15.70;99.90
43679;DHT22;29279;50.858;4.392;2023-05-09T04:16:05;15.70;99.90
43679;DHT22;29279;50.858;4.392;2023-05-09T04:18:31;15.80;99.90
43679;DHT22;29279;50.858;4.392;2023-05-09T04:20:57;15.80;99.90
43679;DHT22;29279;50.858;4.392;2023-05-09T04:23:22;15.80;99.90
43679;DHT22;29279;50.858;4.392;2023-05-09T04:25:48;15.80;99.90
43679;DHT22;29279;50.858;4.392;2023-05-09T04:28:15;15.90;99.90
43679;DHT22;29279;50.858;4.392;2023-05-09T04:30:41;15.90;99.90
43679;DHT22;29279;50.858;4.392;2023-05-09T04:33:07;15.90;99.90
43679;DHT22;29279;50.858;4.392;2023-05-09T04:35:32;15.80;99.90
43679;DHT22;29279;50.858;4.392;2023-05-09T04:37:58;15.70;99.90
43679;DHT22;29279;50.858;4.392;2023-05-09T04:40:24;15.70;99.90
43679;DHT22;29279;50.858;4.392;2023-05-09T04:42:50;15.70;99.90
43679;DHT22;29279;50.858;4.392;2023-05-09T04:45:16;15.80;99.90
43679;DHT22;29279;50.858;4.392;2023-05-09T04:47:42;15.90;99.90
43679;DHT22;29279;50.858;4.392;2023-05-09T04:50:08;15.80;99.90
43679;DHT22;29279;50.858;4.392;2023-05-09T04:52:33;15.90;99.90
43679;DHT22;29279;50.858;4.392;2023-05-09T04:54:59;15.90;99.90
43679;DHT22;29279;50.858;4.392;2023-05-09T04:57:25;15.90;99.90
43679;DHT22;29279;50.858;4.392;2023-05-09T04:59:51;15.90;99.90
43679;DHT22;29279;50.858;4.392;2023-05-09T05:02:17;15.90;99.90
43679;DHT22;29279;50.858;4.392;2023-05-09T05:04:43;15.70;99.90
43679;DHT22;29279;50.858;4.392;2023-05-09T05:07:09;15.70;99.90
43679;DHT22;29279;50.858;4.392;2023-05-09T05:09:35;15.80;99.90
43679;DHT22;29279;50.858;4.392;2023-05-09T05:12:00;15.70;99.90
43679;DHT22;29279;50.858;4.392;2023-05-09T05:14:26;15.70;99.90
43679;DHT22;29279;50.858;4.392;2023-05-09T05:16:52;15.40;99.90
43679;DHT22;29279;50.858;4.392;2023-05-09T05:19:19;15.30;99.90
43679;DHT22;29279;50.858;4.392;2023-05-09T05:21:44;15.10;99.90
43679;DHT22;29279;50.858;4.392;2023-05-09T05:24:10;14.90;99.90
43679;DHT22;29279;50.858;4.392;2023-05-09T05:26:36;14.90;99.90
43679;DHT22;29279;50.858;4.392;2023-05-09T05:29:01;15.10;99.90
43679;DHT22;29279;50.858;4.392;2023-05-09T05:31:27;15.20;99.90
43679;DHT22;29279;50.858;4.392;2023-05-09T05:33:53;15.20;99.90
43679;DHT22;29279;50.858;4.392;2023-05-09T05:36:18;15.10;99.90
43679;DHT22;29279;50.858;4.392;2023-05-09T05:38:44;15.10;99.90
43679;DHT22;29279;50.858;4.392;2023-05-09T05:41:09;15.00;99.90
43679;DHT22;29279;50.858;4.392;2023-05-09T05:43:37;15.00;99.90
43679;DHT22;29279;50.858;4.392;2023-05-09T05:46:02;15.10;99.90
43679;DHT22;29279;50.858;4.392;2023-05-09T05:48:29;15.10;99.90
43679;DHT22;29279;50.858;4.392;2023-05-09T05:50:54;15.10;99.90
43679;DHT22;29279;50.858;4.392;2023-05-09T05:53:20;15.20;99.90
43679;DHT22;29279;50.858;4.392;2023-05-09T05:55:46;15.20;99.90
43679;DHT22;29279;50.858;4.392;2023-05-09T05:58:12;15.30;99.90
43679;DHT22;29279;50.858;4.392;2023-05-09T06:00:38;15.20;99.90
43679;DHT22;29279;50.858;4.392;2023-05-09T06:03:03;15.40;99.90
43679;DHT22;29279;50.858;4.392;2023-05-09T06:05:29;15.30;99.90
43679;DHT22;29279;50.858;4.392;2023-05-09T06:07:55;15.40;99.90
43679;DHT22;29279;50.858;4.392;2023-05-09T06:10:21;15.50;99.90
43679;DHT22;29279;50.858;4.392;2023-05-09T06:12:46;15.60;99.90
43679;DHT22;29279;50.858;4.392;2023-05-09T06:15:12;15.60;99.90
43679;DHT22;29279;50.858;4.392;2023-05-09T06:17:38;15.60;99.90
43679;DHT22;29279;50.858;4.392;2023-05-09T06:20:04;15.60;99.90
43679;DHT22;29279;50.858;4.392;2023-05-09T06:22:30;15.70;99.90
43679;DHT22;29279;50.858;4.392;2023-05-09T06:24:55;15.60;99.90
43679;DHT22;29279;50.858;4.392;2023-05-09T06:27:21;15.60;99.90
43679;DHT22;29279;50.858;4.392;2023-05-09T06:29:46;15.60;99.90
43679;DHT22;29279;50.858;4.392;2023-05-09T06:32:12;15.60;99.90
43679;DHT22;29279;50.858;4.392;2023-05-09T06:34:38;15.80;99.90
43679;DHT22;29279;50.858;4.392;2023-05-09T06:37:04;15.90;99.90
43679;DHT22;29279;50.858;4.392;2023-05-09T06:39:29;15.70;99.90
43679;DHT22;29279;50.858;4.392;2023-05-09T06:41:55;15.80;99.90
43679;DHT22;29279;50.858;4.392;2023-05-09T06:44:20;15.80;99.90
43679;DHT22;29279;50.858;4.392;2023-05-09T06:46:46;15.80;99.90
43679;DHT22;29279;50.858;4.392;2023-05-09T06:49:12;15.80;99.90
43679;DHT22;29279;50.858;4.392;2023-05-09T06:51:38;15.70;99.90
43679;DHT22;29279;50.858;4.392;2023-05-09T06:54:04;15.80;99.90
43679;DHT22;29279;50.858;4.392;2023-05-09T06:56:30;15.80;99.90
43679;DHT22;29279;50.858;4.392;2023-05-09T06:58:56;15.80;99.90
43679;DHT22;29279;50.858;4.392;2023-05-09T07:01:21;15.70;99.90
43679;DHT22;29279;50.858;4.392;2023-05-09T07:03:47;15.60;99.90
43679;DHT22;29279;50.858;4.392;2023-05-09T07:06:13;15.80;99.90
43679;DHT22;29279;50.858;4.392;2023-05-09T07:08:39;15.80;99.90
43679;DHT22;29279;50.858;4.392;2023-05-09T07:11:06;15.90;99.90
43679;DHT22;29279;50.858;4.392;2023-05-09T07:13:32;15.90;99.90
43679;DHT22;29279;50.858;4.392;2023-05-09T07:15:57;15.80;99.90
43679;DHT22;29279;50.858;4.392;2023-05-09T07:18:23;15.90;99.90
43679;DHT22;29279;50.858;4.392;2023-05-09T07:20:49;16.00;99.90
43679;DHT22;29279;50.858;4.392;2023-05-09T07:23:15;15.80;99.90
43679;DHT22;29279;50.858;4.392;2023-05-09T07:25:41;15.70;99.90
43679;DHT22;29279;50.858;4.392;2023-05-09T07:28:06;15.80;99.90
43679;DHT22;29279;50.858;4.392;2023-05-09T07:30:32;15.90;99.90
43679;DHT22;29279;50.858;4.392;2023-05-09T07:32:58;15.70;99.90
43679;DHT22;29279;50.858;4.392;2023-05-09T07:35:23;15.60;99.90
43679;DHT22;29279;50.858;4.392;2023-05-09T07:37:49;15.70;99.90
43679;DHT22;29279;50.858;4.392;2023-05-09T07:40:15;15.70;99.90
43679;DHT22;29279;50.858;4.392;2023-05-09T07:42:40;15.80;99.90
43679;DHT22;29279;50.858;4.392;2023-05-09T07:45:09;15.70;99.90
43679;DHT22;29279;50.858;4.392;2023-05-09T07:47:35;15.60;99.90
43679;DHT22;29279;50.858;4.392;2023-05-09T07:50:01;15.70;99.90
43679;DHT22;29279;50.858;4.392;2023-05-09T07:52:26;15.70;99.90
43679;DHT22;29279;50.858;4.392;2023-05-09T07:54:52;15.60;99.90
43679;DHT22;29279;50.858;4.392;2023-05-09T07:57:18;15.80;99.90
43679;DHT22;29279;50.858;4.392;2023-05-09T07:59:44;15.70;99.90
43679;DHT22;29279;50.858;4.392;2023-05-09T08:02:10;15.70;99.90
43679;DHT22;29279;50.858;4.392;2023-05-09T08:04:37;15.60;99.90
43679;DHT22;29279;50.858;4.392;2023-05-09T08:07:03;15.70;99.90
43679;DHT22;29279;50.858;4.392;2023-05-09T08:09:29;15.70;99.90
43679;DHT22;29279;50.858;4.392;2023-05-09T08:11:55;15.60;99.90
43679;DHT22;29279;50.858;4.392;2023-05-09T08:14:20;15.40;99.90
43679;DHT22;29279;50.858;4.392;2023-05-09T08:16:46;15.30;99.90
43679;DHT22;29279;50.858;4.392;2023-05-09T08:19:12;15.50;99.90
43679;DHT22;29279;50.858;4.392;2023-05-09T08:21:38;15.40;99.90
43679;DHT22;29279;50.858;4.392;2023-05-09T08:24:04;15.50;99.90
43679;DHT22;29279;50.858;4.392;2023-05-09T08:26:33;15.50;99.90
43679;DHT22;29279;50.858;4.392;2023-05-09T08:28:59;15.60;99.90
43679;DHT22;29279;50.858;4.392;2023-05-09T08:31:25;15.70;99.90
43679;DHT22;29279;50.858;4.392;2023-05-09T08:33:51;15.80;99.90
43679;DHT22;29279;50.858;4.392;2023-05-09T08:36:17;16.00;99.90
43679;DHT22;29279;50.858;4.392;2023-05-09T08:38:43;15.80;99.90
43679;DHT22;29279;50.858;4.392;2023-05-09T08:41:08;15.60;99.90
43679;DHT22;29279;50.858;4.392;2023-05-09T08:43:34;15.60;99.90
43679;DHT22;29279;50.858;4.392;2023-05-09T08:46:05;15.60;99.90
43679;DHT22;29279;50.858;4.392;2023-05-09T08:48:33;15.60;99.90
43679;DHT22;29279;50.858;4.392;2023-05-09T08:51:05;15.80;99.90
43679;DHT22;29279;50.858;4.392;2023-05-09T08:53:31;15.70;99.90
43679;DHT22;29279;50.858;4.392;2023-05-09T08:56:02;15.50;99.90
43679;DHT22;29279;50.858;4.392;2023-05-09T08:58:29;15.30;99.90
43679;DHT22;29279;50.858;4.392;2023-05-09T09:00:55;15.30;99.90
43679;DHT22;29279;50.858;4.392;2023-05-09T09:03:22;15.30;99.90
43679;DHT22;29279;50.858;4.392;2023-05-09T09:05:48;15.50;99.90
43679;DHT22;29279;50.858;4.392;2023-05-09T09:08:16;15.40;99.90
43679;DHT22;29279;50.858;4.392;2023-05-09T09:10:43;15.50;99.90
43679;DHT22;29279;50.858;4.392;2023-05-09T09:13:13;15.70;99.90
43679;DHT22;29279;50.858;4.392;2023-05-09T09:15:40;15.60;99.90
43679;DHT22;29279;50.858;4.392;2023-05-09T09:18:11;15.60;99.90
43679;DHT22;29279;50.858;4.392;2023-05-09T09:20:41;15.80;99.90
43679;DHT22;29279;50.858;4.392;2023-05-09T09:23:10;15.90;99.90
43679;DHT22;29279;50.858;4.392;2023-05-09T09:25:37;15.90;99.90
43679;DHT22;29279;50.858;4.392;2023-05-09T09:28:03;16.00;99.90
43679;DHT22;29279;50.858;4.392;2023-05-09T09:30:29;15.80;99.90
43679;DHT22;29279;50.858;4.392;2023-05-09T09:32:57;15.80;99.90
43679;DHT22;29279;50.858;4.392;2023-05-09T09:35:23;15.90;99.90
43679;DHT22;29279;50.858;4.392;2023-05-09T09:37:55;16.00;99.90
43679;DHT22;29279;50.858;4.392;2023-05-09T09:40:23;16.00;99.90
43679;DHT22;29279;50.858;4.392;2023-05-09T09:42:50;15.80;99.90
43679;DHT22;29279;50.858;4.392;2023-05-09T09:45:17;15.50;99.90
43679;DHT22;29279;50.858;4.392;2023-05-09T09:47:45;15.50;99.90
43679;DHT22;29279;50.858;4.392;2023-05-09T09:50:16;15.20;99.90
43679;DHT22;29279;50.858;4.392;2023-05-09T09:52:53;15.20;99.90
43679;DHT22;29279;50.858;4.392;2023-05-09T09:55:21;15.10;99.90
43679;DHT22;29279;50.858;4.392;2023-05-09T09:57:47;15.20;99.90
43679;DHT22;29279;50.858;4.392;2023-05-09T10:00:24;15.20;99.90
43679;DHT22;29279;50.858;4.392;2023-05-09T10:02:56;15.30;99.90
43679;DHT22;29279;50.858;4.392;2023-05-09T10:05:30;15.30;99.90
43679;DHT22;29279;50.858;4.392;2023-05-09T10:08:01;15.20;99.90
43679;DHT22;29279;50.858;4.392;2023-05-09T10:10:29;15.20;99.90
43679;DHT22;29279;50.858;4.392;2023-05-09T10:13:00;15.20;99.90
43679;DHT22;29279;50.858;4.392;2023-05-09T10:15:27;15.30;99.90
43679;DHT22;29279;50.858;4.392;2023-05-09T10:17:56;15.50;99.90
43679;DHT22;29279;50.858;4.392;2023-05-09T10:20:23;15.50;99.90
43679;DHT22;29279;50.858;4.392;2023-05-09T10:22:53;15.40;99.90
43679;DHT22;29279;50.858;4.392;2023-05-09T10:25:21;15.30;99.90
43679;DHT22;29279;50.858;4.392;2023-05-09T10:27:48;15.50;99.90
43679;DHT22;29279;50.858;4.392;2023-05-09T10:30:22;15.40;99.90
43679;DHT22;29279;50.858;4.392;2023-05-09T10:33:02;15.40;99.90
43679;DHT22;29279;50.858;4.392;2023-05-09T10:35:32;15.40;99.90
43679;DHT22;29279;50.858;4.392;2023-05-09T10:37:59;15.20;99.90
43679;DHT22;29279;50.858;4.392;2023-05-09T10:40:27;15.20;99.90
43679;DHT22;29279;50.858;4.392;2023-05-09T10:42:53;15.30;99.90
43679;DHT22;29279;50.858;4.392;2023-05-09T10:45:20;15.50;99.90
43679;DHT22;29279;50.858;4.392;2023-05-09T10:47:48;15.70;99.90
43679;DHT22;29279;50.858;4.392;2023-05-09T10:50:15;15.70;99.90
43679;DHT22;29279;50.858;4.392;2023-05-09T10:53:11;15.50;99.90
43679;DHT22;29279;50.858;4.392;2023-05-09T10:55:53;15.50;99.90
43679;DHT22;29279;50.858;4.392;2023-05-09T11:00:55;15.50;99.90
43679;DHT22;29279;50.858;4.392;2023-05-09T11:03:22;15.50;99.90
43679;DHT22;29279;50.858;4.392;2023-05-09T11:05:51;15.50;99.90
43679;DHT22;29279;50.858;4.392;2023-05-09T11:08:30;15.40;99.90
43679;DHT22;29279;50.858;4.392;2023-05-09T11:11:04;15.20;99.90
43679;DHT22;29279;50.858;4.392;2023-05-09T11:13:31;15.20;99.90
43679;DHT22;29279;50.858;4.392;2023-05-09T11:18:30;15.20;99.90
43679;DHT22;29279;50.858;4.392;2023-05-09T11:20:57;15.10;99.90
43679;DHT22;29279;50.858;4.392;2023-05-09T11:23:28;15.20;99.90
43679;DHT22;29279;50.858;4.392;2023-05-09T11:26:04;15.10;99.90
43679;DHT22;29279;50.858;4.392;2023-05-09T11:28:32;15.10;99.90
43679;DHT22;29279;50.858;4.392;2023-05-09T11:31:25;15.10;99.90
43679;DHT22;29279;50.858;4.392;2023-05-09T11:33:50;15.10;99.90
43679;DHT22;29279;50.858;4.392;2023-05-09T11:39:01;15.10;99.90
43679;DHT22;29279;50.858;4.392;2023-05-09T11:41:28;15.10;99.90
43679;DHT22;29279;50.858;4.392;2023-05-09T11:43:54;15.10;99.90
43679;DHT22;29279;50.858;4.392;2023-05-09T11:46:21;15.10;99.90
43679;DHT22;29279;50.858;4.392;2023-05-09T11:48:47;15.10;99.90
43679;DHT22;29279;50.858;4.392;2023-05-09T11:51:16;15.20;99.90
43679;DHT22;29279;50.858;4.392;2023-05-09T11:53:49;15.20;99.90
43679;DHT22;29279;50.858;4.392;2023-05-09T11:56:15;15.30;99.90
43679;DHT22;29279;50.858;4.392;2023-05-09T11:58:42;15.40;99.90
43679;DHT22;29279;50.858;4.392;2023-05-09T12:01:10;15.40;99.90
43679;DHT22;29279;50.858;4.392;2023-05-09T12:03:43;15.30;99.90
43679;DHT22;29279;50.858;4.392;2023-05-09T12:06:16;15.20;99.90
43679;DHT22;29279;50.858;4.392;2023-05-09T12:08:43;15.20;99.90
43679;DHT22;29279;50.858;4.392;2023-05-09T12:11:09;14.90;99.90
43679;DHT22;29279;50.858;4.392;2023-05-09T12:13:35;15.00;99.90
43679;DHT22;29279;50.858;4.392;2023-05-09T12:16:08;15.00;99.90
43679;DHT22;29279;50.858;4.392;2023-05-09T12:18:34;14.80;99.90
43679;DHT22;29279;50.858;4.392;2023-05-09T12:21:00;14.70;99.90
43679;DHT22;29279;50.858;4.392;2023-05-09T12:23:26;14.80;99.90
43679;DHT22;29279;50.858;4.392;2023-05-09T12:25:53;14.50;99.90
43679;DHT22;29279;50.858;4.392;2023-05-09T12:28:21;14.60;99.90
43679;DHT22;29279;50.858;4.392;2023-05-09T12:30:47;14.50;99.90
43679;DHT22;29279;50.858;4.392;2023-05-09T12:33:13;14.60;99.90
43679;DHT22;29279;50.858;4.392;2023-05-09T12:35:47;14.70;99.90
43679;DHT22;29279;50.858;4.392;2023-05-09T12:38:19;14.80;99.90
43679;DHT22;29279;50.858;4.392;2023-05-09T12:40:58;14.80;99.90
43679;DHT22;29279;50.858;4.392;2023-05-09T12:43:24;14.80;99.90
43679;DHT22;29279;50.858;4.392;2023-05-09T12:45:53;14.80;99.90
43679;DHT22;29279;50.858;4.392;2023-05-09T12:48:21;14.80;99.90
43679;DHT22;29279;50.858;4.392;2023-05-09T12:50:48;14.80;99.90
43679;DHT22;29279;50.858;4.392;2023-05-09T12:53:23;14.80;99.90
43679;DHT22;29279;50.858;4.392;2023-05-09T12:55:49;14.80;99.90
43679;DHT22;29279;50.858;4.392;2023-05-09T12:58:15;14.70;99.90
43679;DHT22;29279;50.858;4.392;2023-05-09T13:00:42;14.70;99.90
43679;DHT22;29279;50.858;4.392;2023-05-09T13:03:24;14.80;99.90
43679;DHT22;29279;50.858;4.392;2023-05-09T13:05:57;14.70;99.90
43679;DHT22;29279;50.858;4.392;2023-05-09T13:08:23;14.70;99.90
43679;DHT22;29279;50.858;4.392;2023-05-09T13:10:49;14.70;99.90
43679;DHT22;29279;50.858;4.392;2023-05-09T13:13:15;14.60;99.90
43679;DHT22;29279;50.858;4.392;2023-05-09T13:15:42;14.60;99.90
43679;DHT22;29279;50.858;4.392;2023-05-09T13:18:08;14.60;99.90
43679;DHT22;29279;50.858;4.392;2023-05-09T13:20:34;14.60;99.90
43679;DHT22;29279;50.858;4.392;2023-05-09T13:22:59;14.50;99.90
43679;DHT22;29279;50.858;4.392;2023-05-09T13:25:25;14.60;99.90
43679;DHT22;29279;50.858;4.392;2023-05-09T13:27:51;14.50;99.90
43679;DHT22;29279;50.858;4.392;2023-05-09T13:30:17;14.60;99.90
43679;DHT22;29279;50.858;4.392;2023-05-09T13:32:43;14.60;99.90
43679;DHT22;29279;50.858;4.392;2023-05-09T13:35:09;14.60;99.90
43679;DHT22;29279;50.858;4.392;2023-05-09T13:37:35;14.80;99.90
43679;DHT22;29279;50.858;4.392;2023-05-09T13:40:01;15.00;99.90
43679;DHT22;29279;50.858;4.392;2023-05-09T13:42:27;15.00;99.90
43679;DHT22;29279;50.858;4.392;2023-05-09T13:44:53;15.00;99.90
43679;DHT22;29279;50.858;4.392;2023-05-09T13:47:18;14.90;99.90
43679;DHT22;29279;50.858;4.392;2023-05-09T13:49:44;14.80;99.90
43679;DHT22;29279;50.858;4.392;2023-05-09T13:52:09;14.70;99.90
43679;DHT22;29279;50.858;4.392;2023-05-09T13:54:35;14.70;99.90
43679;DHT22;29279;50.858;4.392;2023-05-09T13:57:04;14.60;99.90
43679;DHT22;29279;50.858;4.392;2023-05-09T13:59:31;14.60;99.90
43679;DHT22;29279;50.858;4.392;2023-05-09T14:01:57;14.50;99.90
43679;DHT22;29279;50.858;4.392;2023-05-09T14:04:24;14.40;99.90
43679;DHT22;29279;50.858;4.392;2023-05-09T14:06:51;14.40;99.90
43679;DHT22;29279;50.858;4.392;2023-05-09T14:09:17;14.30;99.90
43679;DHT22;29279;50.858;4.392;2023-05-09T14:11:43;14.40;99.90
43679;DHT22;29279;50.858;4.392;2023-05-09T14:14:09;14.30;99.90
43679;DHT22;29279;50.858;4.392;2023-05-09T14:16:35;14.40;99.90
43679;DHT22;29279;50.858;4.392;2023-05-09T14:19:00;14.30;99.90
43679;DHT22;29279;50.858;4.392;2023-05-09T14:21:26;14.30;99.90
43679;DHT22;29279;50.858;4.392;2023-05-09T14:23:52;14.40;99.90
43679;DHT22;29279;50.858;4.392;2023-05-09T14:26:17;14.30;99.90
43679;DHT22;29279;50.858;4.392;2023-05-09T14:28:43;14.30;99.90
43679;DHT22;29279;50.858;4.392;2023-05-09T14:31:09;14.40;99.90
43679;DHT22;29279;50.858;4.392;2023-05-09T14:33:36;14.40;99.90
43679;DHT22;29279;50.858;4.392;2023-05-09T14:36:02;14.40;99.90
43679;DHT22;29279;50.858;4.392;2023-05-09T14:38:28;14.30;99.90
43679;DHT22;29279;50.858;4.392;2023-05-09T14:40:54;14.20;99.90
43679;DHT22;29279;50.858;4.392;2023-05-09T14:43:21;14.10;99.90
43679;DHT22;29279;50.858;4.392;2023-05-09T14:45:47;14.10;99.90
43679;DHT22;29279;50.858;4.392;2023-05-09T14:48:13;14.10;99.90
43679;DHT22;29279;50.858;4.392;2023-05-09T14:50:38;14.20;99.90
43679;DHT22;29279;50.858;4.392;2023-05-09T14:53:04;14.30;99.90
43679;DHT22;29279;50.858;4.392;2023-05-09T14:55:30;14.30;99.90
43679;DHT22;29279;50.858;4.392;2023-05-09T14:57:56;14.30;99.90
43679;DHT22;29279;50.858;4.392;2023-05-09T15:00:22;14.30;99.90
43679;DHT22;29279;50.858;4.392;2023-05-09T15:02:49;14.30;99.90
43679;DHT22;29279;50.858;4.392;2023-05-09T15:05:15;14.30;99.90
43679;DHT22;29279;50.858;4.392;2023-05-09T15:07:41;14.30;99.90
43679;DHT22;29279;50.858;4.392;2023-05-09T15:10:07;14.20;99.90
43679;DHT22;29279;50.858;4.392;2023-05-09T15:12:33;14.10;99.90
43679;DHT22;29279;50.858;4.392;2023-05-09T15:15:16;14.10;99.90
43679;DHT22;29279;50.858;4.392;2023-05-09T15:17:43;14.30;99.90
43679;DHT22;29279;50.858;4.392;2023-05-09T15:20:10;14.40;99.90
43679;DHT22;29279;50.858;4.392;2023-05-09T15:22:36;14.40;99.90
43679;DHT22;29279;50.858;4.392;2023-05-09T15:25:04;14.30;99.90
43679;DHT22;29279;50.858;4.392;2023-05-09T15:27:30;14.40;99.90
43679;DHT22;29279;50.858;4.392;2023-05-09T15:29:55;14.50;99.90
43679;DHT22;29279;50.858;4.392;2023-05-09T15:32:21;14.40;99.90
43679;DHT22;29279;50.858;4.392;2023-05-09T15:34:47;14.50;99.90
43679;DHT22;29279;50.858;4.392;2023-05-09T15:37:13;14.40;99.90
43679;DHT22;29279;50.858;4.392;2023-05-09T15:39:39;14.50;99.90
43679;DHT22;29279;50.858;4.392;2023-05-09T15:42:08;14.50;99.90
43679;DHT22;29279;50.858;4.392;2023-05-09T15:44:34;14.50;99.90
43679;DHT22;29279;50.858;4.392;2023-05-09T15:47:00;14.60;99.90
43679;DHT22;29279;50.858;4.392;2023-05-09T15:49:26;14.80;99.90